Time;durP1;ratioP1;P1;durP2;ratioP2;P2;SDS_P1;SDS_P2;PMS_P1;PMS_P2;Temp;Humidity;BMP_temperature;BMP_pressure;BME280_temperature;BME280_humidity;BME280_pressure;Samples;Min_cycle;Max_cycle;Signal;HPM_P1;HPM_P2
2021/09/02 00:01:37;;;;;;;2.30;1.90;;;13.90;99.90;;;;;;5016044;28;20929;-71
2021/09/02 00:04:06;;;;;;;4.10;2.47;;;13.90;99.90;;;;;;5016138;28;20978;-72
2021/09/02 00:06:34;;;;;;;2.83;1.87;;;13.90;99.90;;;;;;5015896;28;20877;-71
2021/09/02 00:09:02;;;;;;;5.13;2.33;;;14.10;99.90;;;;;;5016080;28;20514;-71
2021/09/02 00:11:30;;;;;;;2.13;1.73;;;14.20;99.90;;;;;;5015870;28;20439;-71
2021/09/02 00:13:59;;;;;;;3.57;2.20;;;14.30;99.90;;;;;;5016123;28;20396;-71
2021/09/02 00:16:27;;;;;;;2.73;2.03;;;14.30;99.90;;;;;;5016131;28;20388;-71
2021/09/02 00:18:55;;;;;;;1.73;1.57;;;14.20;99.90;;;;;;5015683;28;20478;-71
2021/09/02 00:21:23;;;;;;;2.90;2.00;;;14.30;99.90;;;;;;5018209;28;20754;-70
2021/09/02 00:23:52;;;;;;;1.60;1.40;;;14.30;99.90;;;;;;5019629;28;20471;-72
2021/09/02 00:26:20;;;;;;;2.03;1.83;;;14.30;99.90;;;;;;5015315;28;20443;-72
2021/09/02 00:28:48;;;;;;;2.30;2.10;;;14.40;99.90;;;;;;5015318;28;20519;-72
2021/09/02 00:31:17;;;;;;;2.57;1.60;;;14.40;99.90;;;;;;5015452;28;20450;-72
2021/09/02 00:33:45;;;;;;;2.90;1.77;;;14.30;99.90;;;;;;5015622;28;20860;-72
2021/09/02 00:36:13;;;;;;;1.87;1.77;;;14.20;99.90;;;;;;5015182;28;20483;-72
2021/09/02 00:38:41;;;;;;;2.40;2.20;;;14.20;99.90;;;;;;5015184;28;20931;-72
2021/09/02 00:41:09;;;;;;;2.93;1.90;;;14.20;99.90;;;;;;5015559;28;20951;-72
2021/09/02 00:43:38;;;;;;;3.10;2.57;;;14.20;99.90;;;;;;5015317;28;20437;-71
2021/09/02 00:46:06;;;;;;;1.97;1.77;;;14.30;99.90;;;;;;5014931;28;20497;-71
2021/09/02 00:48:36;;;;;;;1.23;1.10;;;14.20;99.90;;;;;;5015062;28;20410;-71
2021/09/02 00:51:04;;;;;;;2.60;1.83;;;14.20;99.90;;;;;;5015109;28;20411;-71
2021/09/02 00:53:33;;;;;;;3.23;1.90;;;14.00;99.90;;;;;;5015086;28;20724;-71
2021/09/02 00:56:01;;;;;;;2.90;1.50;;;13.90;99.90;;;;;;5014979;28;20458;-71
2021/09/02 00:58:29;;;;;;;3.97;1.60;;;13.70;99.90;;;;;;5015340;28;20417;-71
2021/09/02 01:00:57;;;;;;;2.50;2.10;;;13.70;99.90;;;;;;5014717;28;20445;-72
2021/09/02 01:03:25;;;;;;;1.43;1.33;;;13.60;99.90;;;;;;5014953;28;20846;-72
2021/09/02 01:05:55;;;;;;;2.47;2.00;;;13.50;99.90;;;;;;5014940;28;20805;-73
2021/09/02 01:08:24;;;;;;;1.73;1.57;;;13.40;99.90;;;;;;5014179;28;20879;-72
2021/09/02 01:10:52;;;;;;;1.53;1.20;;;13.40;99.90;;;;;;5014629;28;20403;-72
2021/09/02 01:13:22;;;;;;;2.20;2.00;;;13.40;99.90;;;;;;5014774;28;20487;-72
2021/09/02 01:15:51;;;;;;;2.37;2.17;;;13.40;99.90;;;;;;5015131;28;20933;-72
2021/09/02 01:18:19;;;;;;;2.13;1.37;;;13.40;99.90;;;;;;5015351;28;20463;-72
2021/09/02 01:20:47;;;;;;;1.83;1.57;;;13.30;99.90;;;;;;5015436;28;20892;-72
2021/09/02 01:23:22;;;;;;;1.57;1.10;;;13.30;99.90;;;;;;5015313;28;20479;-72
2021/09/02 01:25:50;;;;;;;1.80;1.70;;;13.30;99.90;;;;;;5015690;28;20514;-72
2021/09/02 01:28:18;;;;;;;1.50;1.03;;;13.30;99.90;;;;;;5015562;28;20498;-72
2021/09/02 01:30:46;;;;;;;2.70;1.77;;;13.30;99.90;;;;;;5015729;28;20498;-72
2021/09/02 01:33:16;;;;;;;5.80;3.43;;;13.30;99.90;;;;;;5015659;28;20425;-72
2021/09/02 01:35:45;;;;;;;4.73;4.30;;;13.50;99.90;;;;;;5015568;28;20475;-72
2021/09/02 01:38:13;;;;;;;5.70;4.10;;;13.50;99.90;;;;;;5015115;28;20788;-71
2021/09/02 01:40:44;;;;;;;6.30;4.33;;;13.60;99.90;;;;;;5014929;28;20451;-72
2021/09/02 01:43:16;;;;;;;3.87;3.57;;;13.60;99.90;;;;;;4997021;28;20846;-72
2021/09/02 01:45:45;;;;;;;4.00;3.17;;;13.60;99.90;;;;;;5013690;28;20460;-72
2021/09/02 01:48:13;;;;;;;3.23;2.50;;;13.60;99.90;;;;;;5013983;28;20979;-71
2021/09/02 01:50:42;;;;;;;6.20;3.03;;;13.50;99.90;;;;;;5013882;28;20476;-71
2021/09/02 01:53:13;;;;;;;5.17;3.30;;;13.50;99.90;;;;;;5013947;28;20726;-71
2021/09/02 01:55:43;;;;;;;2.83;2.60;;;13.60;99.90;;;;;;5013865;28;20406;-72
2021/09/02 01:58:12;;;;;;;1.97;1.80;;;13.50;99.90;;;;;;5013766;28;20490;-72
2021/09/02 02:00:41;;;;;;;2.43;1.93;;;13.60;99.90;;;;;;5013781;28;20575;-72
2021/09/02 02:03:09;;;;;;;3.20;1.77;;;13.50;99.90;;;;;;4996318;28;20480;-72
2021/09/02 02:05:38;;;;;;;2.17;1.57;;;13.50;99.90;;;;;;5013552;28;20427;-71
2021/09/02 02:08:06;;;;;;;1.77;1.17;;;13.50;99.90;;;;;;5013878;28;20882;-72
2021/09/02 02:10:34;;;;;;;3.93;2.50;;;13.50;99.90;;;;;;5014082;28;21043;-72
2021/09/02 02:13:03;;;;;;;1.70;1.60;;;13.40;99.90;;;;;;4996641;28;20867;-72
2021/09/02 02:15:32;;;;;;;2.60;1.60;;;13.40;99.90;;;;;;4996586;28;20503;-71
2021/09/02 02:17:59;;;;;;;1.70;1.23;;;13.30;99.90;;;;;;5013344;28;20874;-72
2021/09/02 02:20:28;;;;;;;3.03;1.40;;;13.30;99.90;;;;;;5012984;28;20478;-72
2021/09/02 02:22:56;;;;;;;2.27;2.07;;;13.30;99.90;;;;;;5013235;28;20425;-72
2021/09/02 02:25:24;;;;;;;1.47;1.33;;;13.30;99.90;;;;;;5013415;28;20446;-72
2021/09/02 02:27:53;;;;;;;4.60;2.00;;;13.20;99.90;;;;;;5013081;28;20401;-72
2021/09/02 02:30:24;;;;;;;1.73;1.37;;;13.30;99.90;;;;;;5013216;28;20439;-72
2021/09/02 02:32:52;;;;;;;3.00;1.97;;;13.30;99.90;;;;;;5013108;28;20396;-72
2021/09/02 02:35:21;;;;;;;1.93;1.77;;;13.20;99.90;;;;;;5013009;28;20464;-72
2021/09/02 02:37:49;;;;;;;2.30;2.10;;;13.10;99.90;;;;;;5012812;28;20442;-72
2021/09/02 02:40:18;;;;;;;2.97;1.93;;;13.00;99.90;;;;;;5013024;28;20447;-71
2021/09/02 02:42:47;;;;;;;3.80;1.77;;;13.10;99.90;;;;;;5013195;28;20388;-72
2021/09/02 02:45:15;;;;;;;2.10;1.43;;;13.20;99.90;;;;;;5013179;28;20403;-72
2021/09/02 02:47:45;;;;;;;2.00;1.77;;;13.10;99.90;;;;;;5012965;28;20986;-73
2021/09/02 02:50:13;;;;;;;2.00;1.90;;;13.10;99.90;;;;;;5012956;28;20415;-72
2021/09/02 02:52:41;;;;;;;2.10;1.70;;;13.10;99.90;;;;;;5012805;28;20434;-72
2021/09/02 02:55:10;;;;;;;2.00;1.80;;;13.10;99.90;;;;;;5013118;28;20931;-72
2021/09/02 02:57:38;;;;;;;1.73;1.30;;;13.10;99.90;;;;;;5012731;28;20430;-72
2021/09/02 03:00:08;;;;;;;1.90;1.50;;;13.10;99.90;;;;;;5012751;28;20445;-72
2021/09/02 03:02:36;;;;;;;1.77;0.90;;;13.10;99.90;;;;;;5012889;28;20464;-70
2021/09/02 03:05:08;;;;;;;2.37;1.60;;;13.00;99.90;;;;;;5012954;28;20487;-73
2021/09/02 03:07:37;;;;;;;2.70;1.97;;;13.00;99.90;;;;;;5012828;28;20528;-72
2021/09/02 03:10:07;;;;;;;3.07;2.20;;;12.90;99.90;;;;;;5012608;28;20484;-72
2021/09/02 03:12:35;;;;;;;2.60;1.87;;;13.00;99.90;;;;;;5012702;28;20425;-72
2021/09/02 03:15:04;;;;;;;2.50;1.97;;;12.90;99.90;;;;;;5012565;28;20425;-72
2021/09/02 03:17:33;;;;;;;1.90;1.50;;;12.90;99.90;;;;;;5012434;28;20411;-72
2021/09/02 03:20:01;;;;;;;2.43;1.50;;;13.00;99.90;;;;;;5013154;28;20431;-71
2021/09/02 03:22:31;;;;;;;2.13;1.43;;;12.90;99.90;;;;;;4995708;28;20415;-72
2021/09/02 03:24:59;;;;;;;2.90;1.80;;;12.90;99.90;;;;;;5012990;28;20474;-72
2021/09/02 03:27:27;;;;;;;3.10;1.43;;;12.90;99.90;;;;;;5012602;28;20800;-72
2021/09/02 03:29:55;;;;;;;3.73;1.90;;;12.90;99.90;;;;;;5012639;28;20465;-72
2021/09/02 03:32:23;;;;;;;1.97;1.37;;;13.00;99.90;;;;;;5012700;28;20951;-71
2021/09/02 03:34:51;;;;;;;1.93;1.17;;;13.00;99.90;;;;;;5012193;28;20400;-71
2021/09/02 03:37:19;;;;;;;2.40;1.87;;;13.00;99.90;;;;;;5012552;28;20420;-71
2021/09/02 03:39:48;;;;;;;3.50;1.43;;;13.10;99.90;;;;;;5012083;28;20477;-71
2021/09/02 03:42:16;;;;;;;1.30;1.17;;;13.10;99.90;;;;;;5012771;28;20399;-71
2021/09/02 03:44:45;;;;;;;2.20;1.97;;;13.10;99.90;;;;;;5020035;28;20490;-71
2021/09/02 03:47:13;;;;;;;2.27;1.27;;;13.00;99.90;;;;;;5021173;28;20544;-72
2021/09/02 03:49:41;;;;;;;1.60;1.50;;;13.00;99.90;;;;;;5020551;28;20544;-71
2021/09/02 03:52:09;;;;;;;1.90;1.80;;;12.90;99.90;;;;;;5022869;28;20428;-72
2021/09/02 03:54:37;;;;;;;1.37;1.27;;;12.90;99.90;;;;;;5013377;28;20999;-71
2021/09/02 03:57:07;;;;;;;1.90;1.63;;;12.80;99.90;;;;;;5012226;28;20480;-72
2021/09/02 03:59:34;;;;;;;1.33;0.90;;;12.90;99.90;;;;;;5012726;28;20494;-72
2021/09/02 04:02:03;;;;;;;3.00;1.83;;;12.90;99.90;;;;;;5012176;28;20413;-72
2021/09/02 04:04:31;;;;;;;1.83;1.50;;;12.90;99.90;;;;;;5011899;28;20448;-71
2021/09/02 04:06:59;;;;;;;1.80;1.67;;;12.80;99.90;;;;;;5011898;28;20483;-71
2021/09/02 04:09:27;;;;;;;2.20;1.37;;;12.80;99.90;;;;;;5011850;28;20449;-72
2021/09/02 04:11:55;;;;;;;2.00;1.90;;;12.80;99.90;;;;;;5011956;28;20479;-72
2021/09/02 04:14:24;;;;;;;1.37;1.07;;;12.70;99.90;;;;;;5011952;28;20512;-71
2021/09/02 04:16:55;;;;;;;1.67;1.57;;;12.50;99.90;;;;;;5011857;28;20416;-72
2021/09/02 04:19:24;;;;;;;1.83;1.43;;;12.50;99.90;;;;;;5012113;28;20424;-72
2021/09/02 04:21:52;;;;;;;5.43;1.93;;;12.60;99.90;;;;;;5012010;28;20417;-71
2021/09/02 04:24:20;;;;;;;1.60;1.40;;;12.50;99.90;;;;;;5011766;28;20387;-72
2021/09/02 04:26:48;;;;;;;1.60;1.43;;;12.50;99.90;;;;;;5011951;28;20427;-71
2021/09/02 04:29:16;;;;;;;1.70;1.60;;;12.50;99.90;;;;;;5011849;28;20515;-72
2021/09/02 04:31:45;;;;;;;1.23;1.00;;;12.50;99.90;;;;;;5012991;28;20834;-71
2021/09/02 04:34:13;;;;;;;1.23;0.97;;;12.50;99.90;;;;;;5011665;28;20403;-71
2021/09/02 04:36:42;;;;;;;2.57;1.70;;;12.50;99.90;;;;;;5011428;28;20424;-71
2021/09/02 04:39:10;;;;;;;1.53;1.30;;;12.60;99.90;;;;;;5011799;28;20858;-72
2021/09/02 04:41:38;;;;;;;1.43;1.00;;;12.50;99.90;;;;;;5011722;28;20431;-71
2021/09/02 04:44:06;;;;;;;1.87;1.37;;;12.50;99.90;;;;;;5015308;28;20417;-71
2021/09/02 04:46:34;;;;;;;1.23;1.13;;;12.50;99.90;;;;;;5015312;28;20563;-71
2021/09/02 04:49:03;;;;;;;1.73;1.43;;;12.60;99.90;;;;;;5015288;28;20447;-71
2021/09/02 04:51:31;;;;;;;1.57;1.47;;;12.60;99.90;;;;;;4997866;28;20446;-71
2021/09/02 04:53:59;;;;;;;2.57;1.97;;;12.80;99.90;;;;;;5015720;28;20496;-71
2021/09/02 04:56:27;;;;;;;2.83;2.30;;;12.90;99.90;;;;;;5015410;28;20417;-71
2021/09/02 04:58:55;;;;;;;1.90;1.80;;;13.00;99.90;;;;;;5014879;28;20451;-70
2021/09/02 05:01:23;;;;;;;1.97;1.53;;;13.10;99.90;;;;;;5015039;28;20438;-70
2021/09/02 05:03:52;;;;;;;2.27;1.83;;;13.30;99.90;;;;;;5014867;28;20396;-71
2021/09/02 05:06:21;;;;;;;2.73;2.37;;;13.40;99.90;;;;;;5014960;28;20410;-71
2021/09/02 05:08:49;;;;;;;1.50;1.40;;;13.60;99.90;;;;;;5014648;28;20468;-70
2021/09/02 05:11:17;;;;;;;2.07;1.60;;;13.60;99.90;;;;;;5014929;28;20516;-71
2021/09/02 05:13:45;;;;;;;1.70;1.40;;;13.60;99.90;;;;;;4997087;28;20404;-71
2021/09/02 05:16:13;;;;;;;3.13;1.60;;;13.60;99.90;;;;;;5014785;28;20388;-70
2021/09/02 05:18:41;;;;;;;2.57;2.20;;;13.60;99.90;;;;;;5014832;28;20935;-71
2021/09/02 05:21:09;;;;;;;1.70;1.40;;;13.50;99.90;;;;;;5015298;28;20772;-71
2021/09/02 05:23:39;;;;;;;2.30;2.03;;;13.50;99.90;;;;;;5014829;28;20395;-71
2021/09/02 05:26:07;;;;;;;2.00;1.80;;;13.40;99.90;;;;;;4996786;28;20458;-71
2021/09/02 05:28:35;;;;;;;2.50;1.77;;;13.50;99.90;;;;;;5014168;28;20427;-72
2021/09/02 05:31:03;;;;;;;2.67;1.50;;;13.40;99.90;;;;;;4996783;28;20707;-71
2021/09/02 05:33:31;;;;;;;2.63;1.33;;;13.50;99.90;;;;;;5014338;28;20392;-72
2021/09/02 05:35:59;;;;;;;2.33;1.80;;;13.50;99.90;;;;;;5014300;28;20470;-72
2021/09/02 05:38:27;;;;;;;2.37;2.17;;;13.60;99.90;;;;;;5014155;28;20410;-72
2021/09/02 05:40:56;;;;;;;1.40;1.27;;;13.70;99.90;;;;;;5014219;28;20475;-72
2021/09/02 05:43:25;;;;;;;3.50;2.07;;;13.80;99.90;;;;;;5014667;28;20438;-71
2021/09/02 05:45:53;;;;;;;1.27;1.17;;;13.90;99.90;;;;;;5014763;28;20475;-72
2021/09/02 05:48:21;;;;;;;3.37;2.23;;;14.10;99.90;;;;;;4996709;28;20838;-71
2021/09/02 05:50:50;;;;;;;3.63;1.40;;;14.30;99.90;;;;;;5014064;28;20427;-70
2021/09/02 05:53:18;;;;;;;1.63;1.47;;;14.30;99.90;;;;;;5013188;28;20400;-71
2021/09/02 05:55:48;;;;;;;3.60;1.50;;;14.30;99.90;;;;;;5013459;28;20487;-71
2021/09/02 05:58:17;;;;;;;3.67;2.03;;;14.30;99.90;;;;;;5013787;28;20425;-72
2021/09/02 06:00:46;;;;;;;2.93;2.57;;;14.40;99.90;;;;;;5013684;28;20399;-71
2021/09/02 06:03:14;;;;;;;1.87;1.77;;;14.40;99.90;;;;;;4996759;28;20428;-71
2021/09/02 06:05:42;;;;;;;4.10;1.73;;;14.50;99.90;;;;;;5014178;28;20441;-71
2021/09/02 06:08:10;;;;;;;3.60;1.43;;;14.60;99.90;;;;;;5013585;28;20526;-72
2021/09/02 06:10:38;;;;;;;2.50;2.30;;;14.70;99.90;;;;;;5013776;28;20445;-72
2021/09/02 06:13:06;;;;;;;2.10;1.67;;;14.80;99.90;;;;;;5013641;28;20396;-70
2021/09/02 06:15:36;;;;;;;5.07;3.20;;;15.00;99.90;;;;;;5013281;28;20464;-70
2021/09/02 06:18:04;;;;;;;1.33;0.90;;;15.10;99.90;;;;;;5013834;28;20439;-71
2021/09/02 06:20:32;;;;;;;2.47;1.43;;;15.20;99.90;;;;;;5013553;28;20934;-71
2021/09/02 06:23:00;;;;;;;2.57;1.90;;;15.40;99.90;;;;;;5013641;28;20906;-71
2021/09/02 06:25:29;;;;;;;3.10;1.67;;;15.40;99.90;;;;;;5013463;28;20396;-72
2021/09/02 06:27:57;;;;;;;2.00;0.90;;;15.50;99.90;;;;;;5013217;28;20503;-71
2021/09/02 06:30:25;;;;;;;1.70;1.20;;;15.40;99.90;;;;;;5013158;28;20456;-73
2021/09/02 06:32:54;;;;;;;2.07;1.23;;;15.40;99.90;;;;;;5017827;28;20427;-75
2021/09/02 06:35:23;;;;;;;2.20;1.90;;;15.50;99.90;;;;;;5031258;28;20480;-79
2021/09/02 06:37:51;;;;;;;2.07;1.63;;;15.50;99.90;;;;;;5025559;28;20433;-77
2021/09/02 06:40:19;;;;;;;1.80;1.07;;;15.50;99.90;;;;;;5019628;28;20442;-78
2021/09/02 06:42:47;;;;;;;3.37;2.50;;;15.60;99.90;;;;;;5021870;28;20418;-78
2021/09/02 06:45:17;;;;;;;1.77;1.30;;;15.70;99.90;;;;;;5013827;28;20392;-79
2021/09/02 06:47:45;;;;;;;1.60;1.40;;;16.00;99.90;;;;;;5033149;28;20778;-78
2021/09/02 06:50:15;;;;;;;2.00;1.70;;;16.10;99.90;;;;;;5040321;28;21000;-77
2021/09/02 06:52:44;;;;;;;2.00;1.23;;;16.10;99.90;;;;;;5034045;28;20908;-77
2021/09/02 06:55:12;;;;;;;2.80;1.90;;;16.00;99.90;;;;;;5033257;28;20447;-77
2021/09/02 06:57:41;;;;;;;1.80;1.47;;;15.80;99.90;;;;;;5030309;28;20428;-78
2021/09/02 07:00:10;;;;;;;3.10;1.70;;;15.80;99.90;;;;;;5025582;28;20521;-76
2021/09/02 07:02:38;;;;;;;1.93;1.23;;;15.80;99.90;;;;;;5021158;28;20886;-77
2021/09/02 07:05:08;;;;;;;4.40;4.00;;;15.90;99.90;;;;;;5030929;28;20467;-77
2021/09/02 07:07:38;;;;;;;2.63;1.23;;;15.90;99.90;;;;;;5020725;28;20407;-77
2021/09/02 07:10:08;;;;;;;2.17;1.87;;;16.10;99.90;;;;;;5021501;28;20445;-79
2021/09/02 07:12:36;;;;;;;2.30;2.00;;;16.20;99.90;;;;;;5017916;28;20406;-78
2021/09/02 07:15:05;;;;;;;2.83;2.07;;;16.40;99.90;;;;;;5012440;28;20460;-72
2021/09/02 07:17:34;;;;;;;2.73;2.23;;;16.60;99.90;;;;;;5012432;28;20396;-72
2021/09/02 07:20:02;;;;;;;3.83;2.93;;;16.60;99.90;;;;;;5015714;28;20411;-78
2021/09/02 07:22:32;;;;;;;2.23;1.60;;;16.80;99.90;;;;;;5017091;28;20442;-78
2021/09/02 07:25:01;;;;;;;6.07;2.40;;;16.90;99.90;;;;;;5013954;28;20406;-75
2021/09/02 07:27:30;;;;;;;2.03;1.83;;;16.80;99.90;;;;;;5018610;28;20889;-76
2021/09/02 07:29:58;;;;;;;1.93;1.40;;;17.00;99.90;;;;;;5018608;28;20451;-73
2021/09/02 07:32:27;;;;;;;1.40;1.17;;;17.00;99.90;;;;;;5026796;28;20961;-76
2021/09/02 07:34:55;;;;;;;2.60;1.90;;;17.10;99.90;;;;;;5028586;28;20431;-77
2021/09/02 07:37:23;;;;;;;2.60;2.10;;;16.90;99.90;;;;;;5012596;28;20450;-77
2021/09/02 07:39:51;;;;;;;3.27;1.80;;;16.80;99.90;;;;;;5014605;28;20487;-77
2021/09/02 07:42:21;;;;;;;2.97;2.70;;;16.70;99.90;;;;;;5019111;28;20396;-76
2021/09/02 07:44:49;;;;;;;4.13;2.87;;;16.60;99.90;;;;;;5026028;28;20760;-76
2021/09/02 07:47:17;;;;;;;2.47;2.03;;;16.50;99.90;;;;;;5018527;28;20396;-75
2021/09/02 07:49:46;;;;;;;2.17;2.00;;;16.60;99.90;;;;;;5016093;28;20473;-77
2021/09/02 07:52:14;;;;;;;1.50;1.27;;;16.50;99.90;;;;;;5018833;28;20407;-75
2021/09/02 07:54:42;;;;;;;3.43;2.70;;;16.40;99.90;;;;;;5034371;28;20457;-76
2021/09/02 07:57:10;;;;;;;2.73;2.53;;;16.30;99.90;;;;;;5032793;28;20414;-78
2021/09/02 07:59:40;;;;;;;3.50;3.20;;;16.20;99.90;;;;;;5031949;28;20459;-74
2021/09/02 08:02:08;;;;;;;3.43;3.20;;;16.30;99.90;;;;;;5032516;28;20387;-76
2021/09/02 08:04:36;;;;;;;2.67;2.13;;;16.50;99.90;;;;;;5032229;28;20407;-76
2021/09/02 08:07:04;;;;;;;1.73;1.57;;;16.60;99.90;;;;;;5032625;28;20417;-76
2021/09/02 08:09:32;;;;;;;1.93;1.77;;;16.60;99.90;;;;;;5032460;28;20471;-77
2021/09/02 08:12:01;;;;;;;3.27;2.67;;;16.70;99.90;;;;;;5030598;28;20454;-77
2021/09/02 08:14:29;;;;;;;2.60;2.40;;;16.90;99.90;;;;;;5030509;28;20510;-75
2021/09/02 08:16:59;;;;;;;3.97;2.27;;;17.10;99.90;;;;;;5032688;28;20379;-75
2021/09/02 08:19:28;;;;;;;3.77;2.23;;;17.20;99.90;;;;;;5035667;28;20849;-75
2021/09/02 08:21:56;;;;;;;2.43;1.80;;;17.10;99.90;;;;;;5025348;28;20429;-73
2021/09/02 08:24:24;;;;;;;1.53;1.43;;;17.00;99.90;;;;;;5033224;28;20432;-72
2021/09/02 08:26:53;;;;;;;5.83;1.80;;;17.10;99.90;;;;;;5030916;28;20404;-73
2021/09/02 08:29:21;;;;;;;2.50;2.27;;;17.30;1.00;;;;;;5020664;28;20878;-74
2021/09/02 08:31:49;;;;;;;2.87;2.43;;;17.50;1.00;;;;;;5015645;28;20445;-73
2021/09/02 08:34:19;;;;;;;4.73;2.43;;;17.90;1.00;;;;;;5015761;28;20392;-72
2021/09/02 08:36:47;;;;;;;3.40;2.10;;;18.30;1.00;;;;;;5017061;28;20479;-74
2021/09/02 08:39:15;;;;;;;3.40;2.23;;;18.20;99.90;;;;;;5015377;28;20484;-73
2021/09/02 08:41:44;;;;;;;1.87;1.47;;;17.90;1.00;;;;;;5027170;28;20505;-73
2021/09/02 08:44:12;;;;;;;3.83;2.37;;;17.60;99.90;;;;;;5030569;28;20431;-78
2021/09/02 08:46:40;;;;;;;2.43;2.23;;;17.30;99.90;;;;;;5015554;28;20414;-75
2021/09/02 08:49:09;;;;;;;3.07;2.43;;;16.90;99.90;;;;;;5015260;28;20447;-74
2021/09/02 08:51:40;;;;;;;2.07;1.70;;;16.80;99.90;;;;;;5016605;28;20807;-73
2021/09/02 08:54:09;;;;;;;3.50;2.17;;;17.00;99.90;;;;;;5034952;28;20428;-74
2021/09/02 08:56:37;;;;;;;1.30;1.10;;;17.20;99.90;;;;;;5017339;28;20483;-74
2021/09/02 08:59:05;;;;;;;2.30;1.60;;;17.70;99.90;;;;;;5034931;28;20441;-74
2021/09/02 09:01:33;;;;;;;2.87;2.50;;;18.30;99.90;;;;;;5035002;28;21036;-76
2021/09/02 09:04:11;;;;;;;2.30;1.77;;;18.30;99.90;;;;;;5035075;28;20754;-75
2021/09/02 09:06:41;;;;;;;4.00;2.57;;;17.90;99.90;;;;;;5016863;28;20435;-75
2021/09/02 09:09:12;;;;;;;3.07;1.57;;;17.70;99.90;;;;;;5034145;28;20525;-74
2021/09/02 09:11:48;;;;;;;2.50;1.30;;;17.80;99.90;;;;;;5024205;28;20398;-77
2021/09/02 09:14:19;;;;;;;2.33;1.47;;;17.80;99.90;;;;;;5023127;28;20400;-77
2021/09/02 09:16:51;;;;;;;3.13;1.90;;;17.90;99.90;;;;;;5015563;28;20936;-76
2021/09/02 09:19:40;;;;;;;1.57;1.27;;;17.50;99.90;;;;;;5030089;28;20455;-78
2021/09/02 09:22:12;;;;;;;2.77;1.50;;;17.50;99.90;;;;;;5019796;28;21056;-78
2021/09/02 09:24:49;;;;;;;2.77;1.87;;;17.80;99.90;;;;;;5015223;28;20413;-78
2021/09/02 09:27:20;;;;;;;1.93;1.40;;;18.00;99.90;;;;;;5014962;28;20387;-78
2021/09/02 09:30:06;;;;;;;2.43;1.30;;;17.80;99.90;;;;;;5015087;28;20447;-79
2021/09/02 09:32:43;;;;;;;2.30;1.60;;;17.50;99.90;;;;;;5017989;28;20920;-80
2021/09/02 09:35:14;;;;;;;1.97;1.80;;;17.70;99.90;;;;;;5018765;28;20435;-79
2021/09/02 09:37:47;;;;;;;3.27;1.43;;;17.70;99.90;;;;;;5017702;28;20754;-78
2021/09/02 09:40:21;;;;;;;3.20;2.03;;;17.50;99.90;;;;;;5034429;28;20422;-73
2021/09/02 09:43:14;;;;;;;1.60;1.30;;;17.40;99.90;;;;;;5036762;28;20406;-81
2021/09/02 09:45:48;;;;;;;1.80;1.30;;;17.10;99.90;;;;;;5036222;28;20411;-77
2021/09/02 09:48:31;;;;;;;3.10;1.93;;;16.80;99.90;;;;;;5036678;28;20754;-78
2021/09/02 09:51:13;;;;;;;2.60;1.33;;;16.80;99.90;;;;;;5037423;28;20553;-82
2021/09/02 09:53:44;;;;;;;1.60;1.30;;;17.30;99.90;;;;;;5031203;28;20429;-77
2021/09/02 09:56:13;;;;;;;1.70;1.40;;;17.70;99.90;;;;;;5014538;28;20391;-74
2021/09/02 09:58:43;;;;;;;3.13;2.37;;;17.90;99.90;;;;;;5013493;28;20481;-73
2021/09/02 10:01:12;;;;;;;1.83;1.70;;;17.90;99.90;;;;;;5013909;28;20435;-74
2021/09/02 10:03:42;;;;;;;3.17;2.30;;;18.00;99.90;;;;;;5014059;28;20392;-74
2021/09/02 10:06:12;;;;;;;2.53;1.57;;;17.80;99.90;;;;;;5014505;28;20433;-75
2021/09/02 10:08:44;;;;;;;1.50;1.20;;;17.70;99.90;;;;;;5026218;28;20437;-73
2021/09/02 10:11:14;;;;;;;2.50;1.60;;;17.60;99.90;;;;;;5025174;28;20770;-74
2021/09/02 10:13:43;;;;;;;3.13;2.13;;;17.60;99.90;;;;;;5021895;28;20554;-74
2021/09/02 10:16:12;;;;;;;1.57;1.47;;;17.70;99.90;;;;;;5015016;28;20407;-73
2021/09/02 10:18:45;;;;;;;3.37;2.33;;;17.90;99.90;;;;;;5031258;28;20427;-72
2021/09/02 10:21:16;;;;;;;4.03;1.73;;;18.00;99.90;;;;;;5019370;28;20441;-72
2021/09/02 10:23:47;;;;;;;1.70;1.30;;;18.00;99.90;;;;;;5021402;28;20494;-73
2021/09/02 10:26:32;;;;;;;2.00;1.20;;;18.10;99.90;;;;;;5018679;28;20437;-72
2021/09/02 10:29:01;;;;;;;2.07;1.87;;;18.80;99.90;;;;;;5017657;28;20904;-81
2021/09/02 10:31:29;;;;;;;2.30;1.13;;;18.90;99.90;;;;;;5015188;28;20779;-78
2021/09/02 10:33:57;;;;;;;2.53;1.80;;;18.90;99.90;;;;;;5013913;28;20420;-77
2021/09/02 10:36:46;;;;;;;2.60;2.10;;;19.00;99.90;;;;;;5010696;28;20443;-77
2021/09/02 10:39:41;;;;;;;4.17;3.83;;;18.60;99.90;;;;;;5032977;28;20411;-77
2021/09/02 10:42:09;;;;;;;3.10;1.83;;;18.10;99.90;;;;;;5032191;28;20403;-77
2021/09/02 10:44:50;;;;;;;3.40;1.40;;;17.80;99.90;;;;;;5029131;28;20431;-75
2021/09/02 10:47:19;;;;;;;3.20;1.83;;;17.70;99.90;;;;;;5013323;28;20396;-75
2021/09/02 10:50:03;;;;;;;4.00;1.67;;;17.80;99.90;;;;;;5012808;28;20445;-74
2021/09/02 10:52:32;;;;;;;3.03;2.73;;;17.90;99.90;;;;;;5011224;28;20469;-76
2021/09/02 10:55:29;;;;;;;2.97;1.87;;;18.30;99.90;;;;;;5012814;28;20429;-74
2021/09/02 10:57:57;;;;;;;2.53;1.50;;;18.70;99.90;;;;;;5020966;28;20450;-74
2021/09/02 11:00:32;;;;;;;3.90;2.10;;;19.10;99.90;;;;;;5012522;28;20442;-73
2021/09/02 11:03:14;;;;;;;1.53;1.37;;;19.30;99.90;;;;;;5019339;28;20462;-74
2021/09/02 11:05:45;;;;;;;2.10;1.37;;;19.00;99.90;;;;;;5018833;28;20447;-76
2021/09/02 11:08:13;;;;;;;2.00;1.50;;;18.40;99.90;;;;;;5023990;28;20422;-76
2021/09/02 11:10:42;;;;;;;1.80;1.23;;;18.20;99.90;;;;;;5030975;28;20533;-76
2021/09/02 11:13:14;;;;;;;2.53;1.30;;;18.10;99.90;;;;;;5022502;28;20408;-77
2021/09/02 11:15:43;;;;;;;1.93;1.53;;;18.50;99.90;;;;;;5019942;28;20421;-74
2021/09/02 11:18:11;;;;;;;2.23;1.87;;;19.10;99.90;;;;;;5017473;28;20942;-75
2021/09/02 11:20:43;;;;;;;2.27;2.07;;;19.10;99.90;;;;;;5018913;28;20944;-77
2021/09/02 11:23:17;;;;;;;1.97;1.70;;;19.00;99.90;;;;;;5020268;28;20459;-74
2021/09/02 11:25:48;;;;;;;1.60;1.23;;;18.90;99.90;;;;;;5020337;28;20781;-75
2021/09/02 11:28:22;;;;;;;2.87;1.90;;;19.00;99.90;;;;;;5027752;28;20428;-74
2021/09/02 11:30:51;;;;;;;2.07;1.87;;;19.50;99.90;;;;;;5027765;28;20430;-75
2021/09/02 11:33:20;;;;;;;4.30;2.40;;;19.70;99.90;;;;;;5027722;28;20431;-77
2021/09/02 11:35:56;;;;;;;3.10;1.43;;;19.60;99.90;;;;;;5022602;28;20433;-72
2021/09/02 11:38:24;;;;;;;2.20;1.60;;;19.70;99.90;;;;;;4997742;28;20647;-73
2021/09/02 11:40:54;;;;;;;1.50;1.17;;;20.10;99.90;;;;;;5019240;28;20829;-72
2021/09/02 11:43:23;;;;;;;6.50;2.27;;;20.40;99.90;;;;;;5016125;28;20432;-72
2021/09/02 11:45:53;;;;;;;1.63;1.27;;;20.70;99.90;;;;;;5016283;28;20806;-72
2021/09/02 11:48:21;;;;;;;2.20;1.73;;;20.10;99.90;;;;;;5012023;28;20512;-71
2021/09/02 11:51:00;;;;;;;2.70;1.40;;;19.40;99.90;;;;;;5020635;28;20432;-73
2021/09/02 11:53:29;;;;;;;1.43;1.10;;;18.80;99.90;;;;;;5029129;28;20400;-73
2021/09/02 11:56:10;;;;;;;2.27;1.60;;;18.50;99.90;;;;;;5017585;28;20417;-72
2021/09/02 11:58:38;;;;;;;1.43;1.30;;;18.40;99.90;;;;;;5035394;28;20398;-72
2021/09/02 12:01:07;;;;;;;1.80;1.43;;;18.50;99.90;;;;;;5027151;28;20517;-73
2021/09/02 12:03:36;;;;;;;3.10;1.60;;;18.70;99.90;;;;;;5028270;28;20433;-73
2021/09/02 12:06:05;;;;;;;3.30;1.87;;;18.90;99.90;;;;;;5010293;28;20543;-74
2021/09/02 12:08:34;;;;;;;2.60;2.00;;;19.20;99.90;;;;;;5017241;28;20428;-79
2021/09/02 12:11:05;;;;;;;1.87;1.07;;;19.20;99.90;;;;;;5017425;28;20527;-78
2021/09/02 12:13:39;;;;;;;1.57;1.30;;;19.30;99.90;;;;;;5019075;28;20388;-81
2021/09/02 12:16:12;;;;;;;2.60;1.90;;;19.20;99.90;;;;;;5021581;28;20503;-76
2021/09/02 12:18:44;;;;;;;2.30;1.63;;;19.10;99.90;;;;;;5020124;28;20416;-82
2021/09/02 12:21:18;;;;;;;3.40;1.30;;;19.30;99.90;;;;;;5046071;28;20519;-83
2021/09/02 12:23:52;;;;;;;2.50;1.67;;;19.80;99.90;;;;;;5049513;28;20472;-83
2021/09/02 12:26:26;;;;;;;2.40;1.90;;;20.40;99.90;;;;;;5047239;28;20416;-83
2021/09/02 12:28:58;;;;;;;3.10;2.40;;;20.40;99.90;;;;;;5044015;28;20463;-84
2021/09/02 12:31:30;;;;;;;3.37;1.93;;;20.50;99.90;;;;;;5031126;28;20464;-83
2021/09/02 12:34:08;;;;;;;2.60;1.50;;;20.30;99.90;;;;;;5022303;28;20425;-78
2021/09/02 12:36:38;;;;;;;1.97;1.20;;;19.90;99.90;;;;;;5016607;28;20391;-79
2021/09/02 12:39:21;;;;;;;1.63;1.03;;;19.80;99.90;;;;;;5029825;28;20511;-80
2021/09/02 12:41:53;;;;;;;2.30;1.70;;;19.70;99.90;;;;;;5036634;28;20474;-81
2021/09/02 12:44:24;;;;;;;1.70;1.27;;;19.50;99.90;;;;;;5040442;28;20394;-82
2021/09/02 12:46:59;;;;;;;3.33;1.13;;;19.60;99.90;;;;;;5043349;28;20927;-79
2021/09/02 12:49:30;;;;;;;4.93;1.70;;;19.90;99.90;;;;;;5017687;28;20935;-79
2021/09/02 12:52:04;;;;;;;1.90;1.23;;;20.00;99.90;;;;;;5027866;28;20539;-81
2021/09/02 12:55:04;;;;;;;2.60;2.00;;;20.20;99.90;;;;;;5016564;28;20414;-80
2021/09/02 12:57:36;;;;;;;1.57;1.10;;;20.00;99.90;;;;;;5018751;28;20945;-81
2021/09/02 13:00:07;;;;;;;3.10;2.80;;;20.10;99.90;;;;;;5035504;28;20478;-77
2021/09/02 13:02:35;;;;;;;2.50;1.03;;;20.40;99.90;;;;;;5034782;28;20383;-78